Hc Nadja Maria — V2AV4 — position and weather

sailwx.info

Track history (hours):
 
Tides and Currents Weather Stations Pressure Air Temp Water Temp Dewpoint Dewpoint Depression Visibility Wind Speed Wind Dir Waves Ship Positions

Hc Nadja Maria

Last reported at 2014-Jul-28 03:25 UTC. Time now 2014-Jul-28 04:24 UTC.
Position N 51°55' E 004°25'.

Length 129 m; draft 7.5 m.

Type: Cargo ship. MMSI: 304204000.

Date/timePositionNaut miles runAvg speedWind from/ knotsBaromVisibWave heightAir tempDewpointWater temp
2014-Jul-28 03:25N 51°55' E 004°25'0 0.0
2014-Jul-28 02:28N 51°55' E 004°25'0 0.0
2014-Jul-28 01:31N 51°55' E 004°25'0 0.0
2014-Jul-28 00:31N 51°55' E 004°25'0 0.0
2014-Jul-27 23:31N 51°55' E 004°25'0 0.0
2014-Jul-27 22:31N 51°55' E 004°25'0 0.0
2014-Jul-27 21:31N 51°55' E 004°25'0 0.0
2014-Jul-27 20:31N 51°55' E 004°25'0 0.0
2014-Jul-27 19:28N 51°55' E 004°25'0 0.0
2014-Jul-27 18:31N 51°55' E 004°25'0 0.0
2014-Jul-27 17:31N 51°55' E 004°25'0 0.0
2014-Jul-27 16:28N 51°55' E 004°25'0 0.0
2014-Jul-27 15:31N 51°55' E 004°25'0 0.0
2014-Jul-27 14:31N 51°55' E 004°25'0 0.2
2014-Jul-27 13:34N 51°54' E 004°25'6 6.1
2014-Jul-27 12:34N 51°55' E 004°15'1010.4
2014-Jul-27 11:33N 51°60' E 004°00'9 9.4
2014-Jul-27 10:33N 51°59' E 003°45'7 7.3
2014-Jul-27 09:32N 51°55' E 003°35'0 0.1
2014-Jul-27 08:28N 51°55' E 003°35'0 0.0
2014-Jul-27 07:31N 51°55' E 003°35'0 0.1
2014-Jul-27 06:28N 51°55' E 003°35'0 0.1
2014-Jul-27 05:31N 51°55' E 003°35'0 0.0
2014-Jul-27 04:31N 51°55' E 003°35'0 0.0
2014-Jul-27 03:31N 51°55' E 003°35'0 0.0
2014-Jul-27 02:25N 51°55' E 003°35'0 0.0
2014-Jul-27 01:28N 51°55' E 003°35'0 0.0
2014-Jul-27 00:31N 51°55' E 003°35'0 0.1
2014-Jul-26 23:04N 51°55' E 003°35'0 0.0
2014-Jul-26 22:25N 51°55' E 003°35'0 0.0
2014-Jul-26 20:31N 51°55' E 003°35'0 0.0
2014-Jul-26 19:28N 51°55' E 003°35'0 0.1
2014-Jul-26 18:28N 51°55' E 003°35'0 0.1
2014-Jul-26 17:19N 51°55' E 003°35'0 0.0
2014-Jul-26 15:31N 51°55' E 003°35'0 0.0
2014-Jul-26 14:28N 51°55' E 003°35'0 0.0
2014-Jul-26 13:31N 51°55' E 003°35'0 0.1
2014-Jul-26 11:18N 51°55' E 003°35'7 9.0
2014-Jul-26 10:32N 51°54' E 003°24'1111.0
2014-Jul-26 09:33N 51°51' E 003°07'2110.2
2014-Jul-26 07:29N 51°43' E 002°35'1010.0
2014-Jul-26 06:32N 51°37' E 002°24'1010.5
2014-Jul-26 05:33N 51°29' E 002°13'1511.1
2014-Jul-26 04:11N 51°15' E 002°05'711.5
2014-Jul-26 03:33N 51°11' E 001°55'1211.9
2014-Jul-26 02:33N 51°03' E 001°40'1312.8
2014-Jul-26 01:33N 50°53' E 001°28'4711.8
2014-Jul-25 21:33N 50°25' E 000°28'5613.6
2014-Jul-25 17:25N 50°10' W 000°57'1311.9
2014-Jul-25 16:18N 50°06' W 001°17'10210.2
2014-Jul-25 06:21N 49°30' W 003°44'1012.0
2014-Jul-25 05:34N 49°25' W 003°56'1412.4
2014-Jul-25 04:25N 49°18' W 004°15'2312.4
2014-Jul-25 02:33N 49°06' W 004°46'  
2014-Jul-22 16:33N 39°53' W 011°57'7111.1
2014-Jul-22 10:09N 38°44' W 012°24'711.1
2014-Jul-22 09:31N 38°38' W 012°27'1111.1
2014-Jul-22 08:33N 38°28' W 012°31'1110.9
2014-Jul-22 07:33N 38°17' W 012°36'1111.1
2014-Jul-22 06:33N 38°06' W 012°39'1510.6
2014-Jul-22 05:05N 37°51' W 012°44'1710.9
2014-Jul-22 03:31N 37°35' W 012°48'1311.0
2014-Jul-22 02:23N 37°22' W 012°52'1011.1
2014-Jul-22 01:28N 37°13' W 012°55'1011.2
2014-Jul-22 00:33N 37°03' W 012°59'1111.3
2014-Jul-21 23:33N 36°52' W 013°02'1211.8
2014-Jul-21 22:31N 36°40' W 013°06'  
Track history (hours):
 
Tides and Currents Weather Stations Pressure Air Temp Water Temp Dewpoint Dewpoint Depression Visibility Wind Speed Wind Dir Waves Ship Positions

Hc Nadja Maria

Last reported at 2014-Jul-28 03:25 UTC. Time now 2014-Jul-28 04:24 UTC.
Position N 51°55' E 004°25'.

Length 129 m; draft 7.5 m.

Type: Cargo ship. MMSI: 304204000.

Date/timePositionNaut miles runAvg speedWind from/ knotsBaromVisibWave heightAir tempDewpointWater temp
2014-Jul-28 03:25N 51°55' E 004°25'0 0.0
2014-Jul-28 02:28N 51°55' E 004°25'0 0.0
2014-Jul-28 01:31N 51°55' E 004°25'0 0.0
2014-Jul-28 00:31N 51°55' E 004°25'0 0.0
2014-Jul-27 23:31N 51°55' E 004°25'0 0.0
2014-Jul-27 22:31N 51°55' E 004°25'0 0.0
2014-Jul-27 21:31N 51°55' E 004°25'0 0.0
2014-Jul-27 20:31N 51°55' E 004°25'0 0.0
2014-Jul-27 19:28N 51°55' E 004°25'0 0.0
2014-Jul-27 18:31N 51°55' E 004°25'0 0.0
2014-Jul-27 17:31N 51°55' E 004°25'0 0.0
2014-Jul-27 16:28N 51°55' E 004°25'0 0.0
2014-Jul-27 15:31N 51°55' E 004°25'0 0.0
2014-Jul-27 14:31N 51°55' E 004°25'0 0.2
2014-Jul-27 13:34N 51°54' E 004°25'6 6.1
2014-Jul-27 12:34N 51°55' E 004°15'1010.4
2014-Jul-27 11:33N 51°60' E 004°00'9 9.4
2014-Jul-27 10:33N 51°59' E 003°45'7 7.3
2014-Jul-27 09:32N 51°55' E 003°35'0 0.1
2014-Jul-27 08:28N 51°55' E 003°35'0 0.0
2014-Jul-27 07:31N 51°55' E 003°35'0 0.1
2014-Jul-27 06:28N 51°55' E 003°35'0 0.1
2014-Jul-27 05:31N 51°55' E 003°35'0 0.0
2014-Jul-27 04:31N 51°55' E 003°35'0 0.0
2014-Jul-27 03:31N 51°55' E 003°35'0 0.0
2014-Jul-27 02:25N 51°55' E 003°35'0 0.0
2014-Jul-27 01:28N 51°55' E 003°35'0 0.0
2014-Jul-27 00:31N 51°55' E 003°35'0 0.1
2014-Jul-26 23:04N 51°55' E 003°35'0 0.0
2014-Jul-26 22:25N 51°55' E 003°35'0 0.0
2014-Jul-26 20:31N 51°55' E 003°35'0 0.0
2014-Jul-26 19:28N 51°55' E 003°35'0 0.1
2014-Jul-26 18:28N 51°55' E 003°35'0 0.1
2014-Jul-26 17:19N 51°55' E 003°35'0 0.0
2014-Jul-26 15:31N 51°55' E 003°35'0 0.0
2014-Jul-26 14:28N 51°55' E 003°35'0 0.0
2014-Jul-26 13:31N 51°55' E 003°35'0 0.1
2014-Jul-26 11:18N 51°55' E 003°35'7 9.0
2014-Jul-26 10:32N 51°54' E 003°24'1111.0
2014-Jul-26 09:33N 51°51' E 003°07'2110.2
2014-Jul-26 07:29N 51°43' E 002°35'1010.0
2014-Jul-26 06:32N 51°37' E 002°24'1010.5
2014-Jul-26 05:33N 51°29' E 002°13'1511.1
2014-Jul-26 04:11N 51°15' E 002°05'711.5
2014-Jul-26 03:33N 51°11' E 001°55'1211.9
2014-Jul-26 02:33N 51°03' E 001°40'1312.8
2014-Jul-26 01:33N 50°53' E 001°28'4711.8
2014-Jul-25 21:33N 50°25' E 000°28'5613.6
2014-Jul-25 17:25N 50°10' W 000°57'1311.9
2014-Jul-25 16:18N 50°06' W 001°17'10210.2
2014-Jul-25 06:21N 49°30' W 003°44'1012.0
2014-Jul-25 05:34N 49°25' W 003°56'1412.4
2014-Jul-25 04:25N 49°18' W 004°15'2312.4
2014-Jul-25 02:33N 49°06' W 004°46'  
2014-Jul-22 16:33N 39°53' W 011°57'7111.1
2014-Jul-22 10:09N 38°44' W 012°24'711.1
2014-Jul-22 09:31N 38°38' W 012°27'1111.1
2014-Jul-22 08:33N 38°28' W 012°31'1110.9
2014-Jul-22 07:33N 38°17' W 012°36'1111.1
2014-Jul-22 06:33N 38°06' W 012°39'1510.6
2014-Jul-22 05:05N 37°51' W 012°44'1710.9
2014-Jul-22 03:31N 37°35' W 012°48'1311.0
2014-Jul-22 02:23N 37°22' W 012°52'1011.1
2014-Jul-22 01:28N 37°13' W 012°55'1011.2
2014-Jul-22 00:33N 37°03' W 012°59'1111.3
2014-Jul-21 23:33N 36°52' W 013°02'1211.8
2014-Jul-21 22:31N 36°40' W 013°06'  

Dump ship's entire track history